Time;durP1;ratioP1;P1;durP2;ratioP2;P2;SDS_P1;SDS_P2;PMS_P1;PMS_P2;Temp;Humidity;BMP_temperature;BMP_pressure;BME280_temperature;BME280_humidity;BME280_pressure;Samples;Min_cycle;Max_cycle;Signal;HPM_P1;HPM_P2
2022/08/30 00:02:27;;;;;;;;;;;;;;;17.86;100.00;102307.31;5115435;28;19924;-35
2022/08/30 00:04:56;;;;;;;;;;;;;;;17.86;100.00;102320.59;5115636;28;20292;-39
2022/08/30 00:07:24;;;;;;;;;;;;;;;17.87;100.00;102316.63;5114691;28;20309;-40
2022/08/30 00:09:51;;;;;;;;;;;;;;;17.87;100.00;102320.28;5115185;28;19924;-39
2022/08/30 00:12:20;;;;;;;;;;;;;;;17.89;100.00;102308.69;5115226;28;19930;-35
2022/08/30 00:14:48;;;;;;;;;;;;;;;17.90;100.00;102304.72;5114357;28;20302;-36
2022/08/30 00:17:16;;;;;;;;;;;;;;;17.90;100.00;102296.25;5115122;28;19931;-34
2022/08/30 00:19:43;;;;;;;;;;;;;;;17.89;100.00;102303.88;5115247;28;20325;-32
2022/08/30 00:22:11;;;;;;;;;;;;;;;17.89;100.00;102297.41;5110832;28;19930;-38
2022/08/30 00:24:38;;;;;;;;;;;;;;;17.89;100.00;102297.41;5114847;28;19930;-32
2022/08/30 00:27:06;;;;;;;;;;;;;;;17.88;100.00;102290.91;5114880;28;19923;-32
2022/08/30 00:29:35;;;;;;;;;;;;;;;17.88;100.00;102296.56;5095894;28;19923;-32
2022/08/30 00:32:03;;;;;;;;;;;;;;;17.88;100.00;102302.19;5114188;28;19946;-34
2022/08/30 00:34:30;;;;;;;;;;;;;;;17.87;100.00;102300.53;5114335;28;19923;-34
2022/08/30 00:36:59;;;;;;;;;;;;;;;17.87;100.00;102299.69;5114507;28;19931;-34
2022/08/30 00:39:26;;;;;;;;;;;;;;;17.86;100.00;102301.69;5114779;28;19928;-32
2022/08/30 00:41:54;;;;;;;;;;;;;;;17.86;100.00;102293.22;5113817;28;19924;-40
2022/08/30 00:44:22;;;;;;;;;;;;;;;17.85;100.00;102296.34;5114344;28;20387;-41
2022/08/30 00:46:51;;;;;;;;;;;;;;;17.84;100.00;102297.50;5114558;28;19930;-38
2022/08/30 00:49:19;;;;;;;;;;;;;;;17.84;100.00;102298.31;5113758;28;19931;-36
2022/08/30 00:51:47;;;;;;;;;;;;;;;17.82;100.00;102303.44;5114377;28;19924;-35
2022/08/30 00:54:15;;;;;;;;;;;;;;;17.81;100.00;102296.13;5114402;28;20315;-36
2022/08/30 00:56:43;;;;;;;;;;;;;;;17.79;100.00;102303.22;5113441;28;19940;-40
2022/08/30 00:59:10;;;;;;;;;;;;;;;17.78;100.00;102308.06;5114230;28;19981;-35
2022/08/30 01:01:38;;;;;;;;;;;;;;;17.78;100.00;102312.88;5114328;28;19923;-43
2022/08/30 01:04:08;;;;;;;;;;;;;;;17.78;100.00;102308.06;5113522;28;19930;-34
2022/08/30 01:06:38;;;;;;;;;;;;;;;17.78;100.00;102313.72;5114052;28;19928;-37
2022/08/30 01:09:06;;;;;;;;;;;;;;;17.78;100.00;102307.22;5114089;28;19924;-37
2022/08/30 01:11:36;;;;;;;;;;;;;;;17.78;100.00;102301.59;5109615;28;19924;-32
2022/08/30 01:14:04;;;;;;;;;;;;;;;17.76;100.00;102301.91;5114400;28;19931;-38
2022/08/30 01:16:33;;;;;;;;;;;;;;;17.76;100.00;102307.53;5113103;28;19927;-36
2022/08/30 01:19:02;;;;;;;;;;;;;;;17.77;100.00;102312.03;5114044;28;20030;-40
2022/08/30 01:21:34;;;;;;;;;;;;;;;17.77;100.00;102306.41;5113793;28;19946;-31
2022/08/30 01:24:04;;;;;;;;;;;;;;;17.79;100.00;102308.88;5112511;28;19924;-32
2022/08/30 01:26:32;;;;;;;;;;;;;;;17.77;100.00;102303.56;5113982;28;20383;-31
2022/08/30 01:29:02;;;;;;;;;;;;;;;17.79;100.00;102306.06;5113558;28;19924;-32
2022/08/30 01:31:29;;;;;;;;;;;;;;;17.78;100.00;102305.25;5112952;28;19924;-32
2022/08/30 01:33:57;;;;;;;;;;;;;;;17.78;100.00;102301.59;5113632;28;19923;-40
2022/08/30 01:36:24;;;;;;;;;;;;;;;17.79;100.00;102306.06;5113310;28;19934;-35
2022/08/30 01:38:53;;;;;;;;;;;;;;;17.79;100.00;102300.41;5112893;28;19931;-43
2022/08/30 01:41:24;;;;;;;;;;;;;;;17.81;100.00;102300.94;5113708;28;19927;-34
2022/08/30 01:43:52;;;;;;;;;;;;;;;17.82;100.00;102308.25;5113544;28;19934;-33
2022/08/30 01:46:22;;;;;;;;;;;;;;;17.81;100.00;102313.06;5112597;28;19928;-34
2022/08/30 01:48:50;;;;;;;;;;;;;;;17.82;100.00;102314.75;5112664;28;20034;-39
2022/08/30 01:51:21;;;;;;;;;;;;;;;17.83;100.00;102310.78;5113625;28;19959;-37
2022/08/30 01:53:49;;;;;;;;;;;;;;;17.84;100.00;102317.25;5112564;28;19931;-37
2022/08/30 01:56:17;;;;;;;;;;;;;;;17.84;100.00;102318.09;5113251;28;19928;-35
2022/08/30 01:58:46;;;;;;;;;;;;;;;17.85;100.00;102310.47;5112406;28;19924;-33
2022/08/30 02:01:16;;;;;;;;;;;;;;;17.85;100.00;102314.13;5113628;28;19928;-37
2022/08/30 02:03:44;;;;;;;;;;;;;;;17.85;100.00;102316.09;5101814;28;19955;-37
2022/08/30 02:06:13;;;;;;;;;;;;;;;17.85;100.00;102311.31;5112197;28;20376;-38
2022/08/30 02:08:41;;;;;;;;;;;;;;;17.86;100.00;102314.97;5113074;28;20166;-34
2022/08/30 02:11:09;;;;;;;;;;;;;;;17.86;100.00;102312.13;5112808;28;19928;-34
2022/08/30 02:13:38;;;;;;;;;;;;;;;17.86;100.00;102315.81;5108454;28;19924;-32
2022/08/30 02:16:07;;;;;;;;;;;;;;;17.87;100.00;102305.34;5112943;28;19928;-35
2022/08/30 02:18:36;;;;;;;;;;;;;;;17.88;100.00;102316.31;5113159;28;20002;-31
2022/08/30 02:21:03;;;;;;;;;;;;;;;17.89;100.00;102314.34;5112169;28;19932;-33
2022/08/30 02:23:31;;;;;;;;;;;;;;;17.89;100.00;102311.50;5112709;28;19923;-38
2022/08/30 02:26:00;;;;;;;;;;;;;;;17.90;100.00;102307.53;5112717;28;20004;-37
2022/08/30 02:28:28;;;;;;;;;;;;;;;17.91;100.00;102312.03;5112005;28;19927;-33
2022/08/30 02:30:56;;;;;;;;;;;;;;;17.92;100.00;102308.06;5110186;28;19928;-38
2022/08/30 02:33:25;;;;;;;;;;;;;;;17.91;100.00;102312.03;5112609;28;19924;-32
2022/08/30 02:35:54;;;;;;;;;;;;;;;17.93;100.00;102314.56;5111721;28;20428;-32
2022/08/30 02:38:23;;;;;;;;;;;;;;;17.93;100.00;102314.56;5112635;28;20011;-37
2022/08/30 02:40:51;;;;;;;;;;;;;;;17.93;100.00;102304.09;5112552;28;19924;-33
2022/08/30 02:43:18;;;;;;;;;;;;;;;17.93;100.00;102303.25;5112896;28;19928;-31
2022/08/30 02:45:46;;;;;;;;;;;;;;;17.92;100.00;102310.91;5112642;28;19932;-32
2022/08/30 02:48:14;;;;;;;;;;;;;;;17.93;100.00;102303.25;5112253;28;19939;-37
2022/08/30 02:50:44;;;;;;;;;;;;;;;17.92;100.00;102308.06;5112401;28;20459;-32
2022/08/30 02:53:12;;;;;;;;;;;;;;;17.92;100.00;102307.22;5112419;28;19931;-34
2022/08/30 02:55:42;;;;;;;;;;;;;;;17.91;100.00;102309.22;5111553;28;19931;-32
2022/08/30 02:58:11;;;;;;;;;;;;;;;17.90;100.00;102304.72;5112763;28;19930;-34
2022/08/30 03:00:40;;;;;;;;;;;;;;;17.91;100.00;102306.41;5105404;28;19927;-35
2022/08/30 03:03:08;;;;;;;;;;;;;;;17.89;100.00;102301.06;5115896;28;20281;-36
2022/08/30 03:05:36;;;;;;;;;;;;;;;17.90;100.00;102301.91;5116641;28;20023;-40
2022/08/30 03:08:08;;;;;;;;;;;;;;;17.90;100.00;102304.72;5116282;28;19928;-32
2022/08/30 03:10:37;;;;;;;;;;;;;;;17.89;100.00;102300.22;5115547;28;20373;-39
2022/08/30 03:13:06;;;;;;;;;;;;;;;17.90;100.00;102293.41;5117106;28;19924;-36
2022/08/30 03:15:34;;;;;;;;;;;;;;;17.92;100.00;102301.59;5116349;28;19924;-33
2022/08/30 03:18:05;;;;;;;;;;;;;;;17.90;100.00;102282.97;5111861;28;19923;-33
2022/08/30 03:20:33;;;;;;;;;;;;;;;17.90;100.00;102287.78;5116138;28;20308;-44
2022/08/30 03:23:01;;;;;;;;;;;;;;;17.89;100.00;102291.75;5115832;28;19928;-39
2022/08/30 03:25:30;;;;;;;;;;;;;;;17.89;100.00;102288.91;5115805;28;19924;-35
2022/08/30 03:27:58;;;;;;;;;;;;;;;17.87;100.00;102289.22;5116117;28;20315;-32
2022/08/30 03:30:26;;;;;;;;;;;;;;;17.88;100.00;102284.41;5095766;28;20467;-34
2022/08/30 03:32:53;;;;;;;;;;;;;;;17.87;100.00;102294.03;5113782;28;20268;-38
2022/08/30 03:35:21;;;;;;;;;;;;;;;17.86;100.00;102293.22;5107231;28;19924;-36
2022/08/30 03:37:49;;;;;;;;;;;;;;;17.87;100.00;102291.22;5114361;28;19931;-36
2022/08/30 03:40:22;;;;;;;;;;;;;;;17.86;100.00;102283.91;5116084;28;19931;-40
2022/08/30 03:42:52;;;;;;;;;;;;;;;17.86;100.00;102281.06;5115427;28;19923;-42
2022/08/30 03:45:20;;;;;;;;;;;;;;;17.86;100.00;102289.53;5114794;28;19931;-40
2022/08/30 03:47:47;;;;;;;;;;;;;;;17.85;100.00;102290.69;5115545;28;20388;-33
2022/08/30 03:50:15;;;;;;;;;;;;;;;17.86;100.00;102286.72;5115732;28;20392;-39
2022/08/30 03:52:44;;;;;;;;;;;;;;;17.86;100.00;102281.91;5114797;28;19924;-42
2022/08/30 03:55:12;;;;;;;;;;;;;;;17.87;100.00;102291.22;5115388;28;20296;-32
2022/08/30 03:57:41;;;;;;;;;;;;;;;17.86;100.00;102287.56;5115548;28;19924;-34
2022/08/30 04:00:12;;;;;;;;;;;;;;;17.86;100.00;102287.56;5114591;28;19931;-32
2022/08/30 04:02:40;;;;;;;;;;;;;;;17.86;100.00;102287.56;5115494;28;19947;-40
2022/08/30 04:05:08;;;;;;;;;;;;;;;17.87;100.00;102296.88;5115359;28;19924;-35
2022/08/30 04:07:36;;;;;;;;;;;;;;;17.86;100.00;102290.38;5114588;28;19935;-32
2022/08/30 04:10:04;;;;;;;;;;;;;;;17.85;100.00;102287.88;5114453;28;19935;-32
2022/08/30 04:12:31;;;;;;;;;;;;;;;17.85;100.00;102290.69;5114303;28;19928;-37
2022/08/30 04:14:59;;;;;;;;;;;;;;;17.85;100.00;102296.34;5115254;28;19942;-37
2022/08/30 04:17:28;;;;;;;;;;;;;;;17.84;100.00;102289.03;5115328;28;19928;-33
2022/08/30 04:19:55;;;;;;;;;;;;;;;17.83;100.00;102287.34;5114413;28;19924;-42
2022/08/30 04:22:23;;;;;;;;;;;;;;;17.82;100.00;102292.16;5115016;28;19931;-41
2022/08/30 04:24:50;;;;;;;;;;;;;;;17.82;100.00;102297.81;5114975;28;19924;-32
2022/08/30 04:27:19;;;;;;;;;;;;;;;17.82;100.00;102285.66;5113975;28;20399;-33
2022/08/30 04:29:47;;;;;;;;;;;;;;;17.81;100.00;102293.31;5114842;28;19923;-31
2022/08/30 04:32:15;;;;;;;;;;;;;;;17.79;100.00;102291.94;5108062;28;19931;-39
2022/08/30 04:34:44;;;;;;;;;;;;;;;17.79;100.00;102297.59;5114112;28;19924;-31
2022/08/30 04:37:12;;;;;;;;;;;;;;;17.77;100.00;102294.25;5114623;28;20273;-32
2022/08/30 04:39:39;;;;;;;;;;;;;;;17.76;100.00;102296.25;5114247;28;19931;-36
2022/08/30 04:42:08;;;;;;;;;;;;;;;17.76;100.00;102306.72;5113517;28;19935;-33
2022/08/30 04:44:35;;;;;;;;;;;;;;;17.75;100.00;102297.41;5113434;28;19924;-38
2022/08/30 04:47:03;;;;;;;;;;;;;;;17.74;100.00;102306.19;5112824;28;19924;-39
2022/08/30 04:49:31;;;;;;;;;;;;;;;17.72;100.00;102303.66;5112497;28;19931;-38
2022/08/30 04:52:00;;;;;;;;;;;;;;;17.72;100.00;102311.31;5112888;28;20007;-39
2022/08/30 04:54:28;;;;;;;;;;;;;;;17.72;100.00;102308.47;5112566;28;19939;-32
2022/08/30 04:56:55;;;;;;;;;;;;;;;17.71;100.00;102309.63;5113152;28;19924;-33
2022/08/30 04:59:23;;;;;;;;;;;;;;;17.67;100.00;102309.41;5113670;28;20006;-39
2022/08/30 05:01:51;;;;;;;;;;;;;;;17.67;100.00;102305.75;5112828;28;19927;-36
2022/08/30 05:04:18;;;;;;;;;;;;;;;17.65;100.00;102308.88;5109758;28;19927;-33
2022/08/30 05:06:46;;;;;;;;;;;;;;;17.62;100.00;102308.63;5113504;28;19924;-38
2022/08/30 05:09:15;;;;;;;;;;;;;;;17.62;100.00;102314.28;5112189;28;19935;-34
2022/08/30 05:11:43;;;;;;;;;;;;;;;17.60;100.00;102323.03;5113441;28;19924;-34
2022/08/30 05:14:10;;;;;;;;;;;;;;;17.58;100.00;102320.53;5113076;28;20014;-36
2022/08/30 05:16:40;;;;;;;;;;;;;;;17.58;100.00;102327.34;5112424;28;19931;-34
2022/08/30 05:19:08;;;;;;;;;;;;;;;17.58;100.00;102324.53;5113250;28;19947;-32
2022/08/30 05:21:35;;;;;;;;;;;;;;;17.56;100.00;102322.88;5112367;28;19931;-38
2022/08/30 05:24:03;;;;;;;;;;;;;;;17.58;100.00;102324.53;5112146;28;19928;-38
2022/08/30 05:26:33;;;;;;;;;;;;;;;17.58;100.00;102331.03;5113091;28;19924;-38
2022/08/30 05:29:01;;;;;;;;;;;;;;;17.59;100.00;102324.19;5112919;28;19978;-39
2022/08/30 05:31:30;;;;;;;;;;;;;;;17.61;100.00;102332.34;5112192;28;19923;-44
2022/08/30 05:33:58;;;;;;;;;;;;;;;17.61;100.00;102329.53;5112887;28;19984;-34
2022/08/30 05:36:27;;;;;;;;;;;;;;;17.62;100.00;102332.03;5112896;28;19924;-37
2022/08/30 05:38:55;;;;;;;;;;;;;;;17.63;100.00;102335.72;5111890;28;20400;-33
2022/08/30 05:41:23;;;;;;;;;;;;;;;17.63;100.00;102333.72;5112666;28;19924;-35
2022/08/30 05:43:55;;;;;;;;;;;;;;;17.64;100.00;102338.25;5112045;28;19972;-35
2022/08/30 05:46:23;;;;;;;;;;;;;;;17.64;100.00;102331.75;5112530;28;19941;-35
2022/08/30 05:48:51;;;;;;;;;;;;;;;17.64;100.00;102334.56;5112509;28;19930;-36
2022/08/30 05:51:20;;;;;;;;;;;;;;;17.64;100.00;102335.44;5111750;28;19928;-42
2022/08/30 05:53:48;;;;;;;;;;;;;;;17.64;100.00;102335.44;5112544;28;19939;-36
2022/08/30 05:56:17;;;;;;;;;;;;;;;17.65;100.00;102333.44;5112375;28;19927;-38
2022/08/30 05:58:45;;;;;;;;;;;;;;;17.67;100.00;102333.97;5111665;28;19999;-38
2022/08/30 06:01:21;;;;;;;;;;;;;;;17.68;100.00;102335.66;5108498;28;19924;-39
2022/08/30 06:03:49;;;;;;;;;;;;;;;17.70;100.00;102333.34;5112576;28;19924;-33
2022/08/30 06:06:17;;;;;;;;;;;;;;;17.71;100.00;102340.69;5111665;28;19931;-32
2022/08/30 06:08:46;;;;;;;;;;;;;;;17.73;100.00;102339.22;5108994;28;20292;-34
2022/08/30 06:11:14;;;;;;;;;;;;;;;17.75;100.00;102342.56;5093794;28;20333;-38
2022/08/30 06:13:41;;;;;;;;;;;;;;;17.77;100.00;102350.75;5110830;28;19923;-32
2022/08/30 06:16:11;;;;;;;;;;;;;;;17.78;100.00;102352.41;5111970;28;20360;-37
2022/08/30 06:18:40;;;;;;;;;;;;;;;17.78;100.00;102356.06;5112126;28;19932;-39
2022/08/30 06:21:08;;;;;;;;;;;;;;;17.80;100.00;102362.22;5111344;28;19932;-37
2022/08/30 06:23:41;;;;;;;;;;;;;;;17.82;100.00;102353.44;5109854;28;19923;-30
2022/08/30 06:26:09;;;;;;;;;;;;;;;17.82;100.00;102356.25;5111553;28;19928;-36
2022/08/30 06:28:36;;;;;;;;;;;;;;;17.84;100.00;102362.44;5112088;28;19935;-32
2022/08/30 06:31:05;;;;;;;;;;;;;;;17.85;100.00;102364.13;5112093;28;19931;-39
2022/08/30 06:33:33;;;;;;;;;;;;;;;17.87;100.00;102361.81;5110495;28;20450;-43
2022/08/30 06:36:03;;;;;;;;;;;;;;;17.89;100.00;102362.34;5111854;28;20273;-36
2022/08/30 06:38:32;;;;;;;;;;;;;;;17.96;100.00;102364.78;5111773;28;19924;-38
2022/08/30 06:41:00;;;;;;;;;;;;;;;18.00;100.00;102362.97;5111194;28;19950;-38
2022/08/30 06:43:27;;;;;;;;;;;;;;;18.04;100.00;102367.69;5111797;28;19923;-40
2022/08/30 06:45:55;;;;;;;;;;;;;;;18.09;100.00;102359.13;5111762;28;19930;-35
2022/08/30 06:48:22;;;;;;;;;;;;;;;18.19;100.00;102361.72;5111077;28;20289;-38
2022/08/30 06:50:52;;;;;;;;;;;;;;;18.32;100.00;102367.69;5111708;28;19932;-35
2022/08/30 06:53:21;;;;;;;;;;;;;;;18.47;100.00;102361.72;5111495;28;19927;-36
2022/08/30 06:55:54;;;;;;;;;;;;;;;18.66;100.00;102365.28;5110793;28;20038;-38
2022/08/30 06:58:22;;;;;;;;;;;;;;;19.00;100.00;102369.56;5111892;28;19934;-40
2022/08/30 07:00:49;;;;;;;;;;;;;;;19.46;100.00;102361.59;5111695;28;20265;-41
2022/08/30 07:03:17;;;;;;;;;;;;;;;20.02;100.00;102357.25;5107189;28;20296;-40
2022/08/30 07:05:44;;;;;;;;;;;;;;;20.63;99.24;102366.81;5111636;28;19973;-37
2022/08/30 07:08:12;;;;;;;;;;;;;;;21.25;96.63;102363.72;5110798;28;19924;-43
2022/08/30 07:10:41;;;;;;;;;;;;;;;21.88;91.93;102373.44;5110735;28;19939;-37
2022/08/30 07:13:08;;;;;;;;;;;;;;;22.53;88.94;102367.31;5111972;28;19934;-31
2022/08/30 07:15:36;;;;;;;;;;;;;;;23.22;85.21;102365.97;5110718;28;19967;-35
2022/08/30 07:20:49;;;;;;;;;;;;;;;24.42;76.64;102362.97;5110852;28;19931;-36
2022/08/30 07:23:17;;;;;;;;;;;;;;;24.92;68.09;102366.22;5110841;28;19924;-29
2022/08/30 07:25:46;;;;;;;;;;;;;;;25.33;66.90;102364.22;5110870;28;19936;-36
2022/08/30 07:28:13;;;;;;;;;;;;;;;25.73;63.57;102361.31;5111057;28;19924;-37
2022/08/30 07:30:41;;;;;;;;;;;;;;;26.16;61.89;102363.28;5109967;28;19930;-32
2022/08/30 07:33:09;;;;;;;;;;;;;;;26.48;58.50;102369.00;5110917;28;19934;-34
2022/08/30 07:35:37;;;;;;;;;;;;;;;26.69;54.74;102366.63;5110924;28;19959;-35
2022/08/30 07:38:05;;;;;;;;;;;;;;;26.91;51.64;102360.19;5110481;28;20293;-29
2022/08/30 07:40:32;;;;;;;;;;;;;;;27.22;53.37;102362.13;5110174;28;19923;-33
2022/08/30 07:43:01;;;;;;;;;;;;;;;27.44;49.11;102363.41;5109255;28;20038;-33
2022/08/30 07:45:29;;;;;;;;;;;;;;;27.59;48.95;102368.25;5109222;28;19923;-28
2022/08/30 07:47:56;;;;;;;;;;;;;;;27.76;47.33;102367.78;5113099;28;19924;-34
2022/08/30 07:50:24;;;;;;;;;;;;;;;27.95;47.23;102369.78;5112158;28;19924;-32
2022/08/30 07:52:51;;;;;;;;;;;;;;;28.18;45.40;102366.06;5112997;28;19931;-33
2022/08/30 07:55:19;;;;;;;;;;;;;;;28.40;43.72;102380.41;5113819;28;19928;-37
2022/08/30 07:57:46;;;;;;;;;;;;;;;28.51;42.81;102376.88;5102225;28;20400;-30
2022/08/30 08:00:16;;;;;;;;;;;;;;;28.60;42.66;102388.91;5113621;28;20412;-29
2022/08/30 08:02:44;;;;;;;;;;;;;;;28.73;40.62;102384.63;5113307;28;19923;-31
2022/08/30 08:05:13;;;;;;;;;;;;;;;28.80;41.84;102394.19;5111217;28;19924;-31
2022/08/30 08:07:45;;;;;;;;;;;;;;;28.97;39.28;102389.97;5110331;28;19935;-37
2022/08/30 08:10:13;;;;;;;;;;;;;;;28.83;38.05;102392.59;5113900;28;20018;-36
2022/08/30 08:12:41;;;;;;;;;;;;;;;28.61;40.22;102393.44;5094184;28;20022;-35
2022/08/30 08:15:09;;;;;;;;;;;;;;;28.61;39.25;102387.72;5113706;28;19931;-30
2022/08/30 08:17:38;;;;;;;;;;;;;;;28.76;40.15;102390.44;5114320;28;19924;-30
2022/08/30 08:20:06;;;;;;;;;;;;;;;29.02;39.83;102400.25;5114101;28;19923;-36
2022/08/30 08:22:33;;;;;;;;;;;;;;;29.31;40.09;102395.75;5114160;28;19928;-29
2022/08/30 08:25:06;;;;;;;;;;;;;;;29.65;39.08;102390.84;5108727;28;20018;-30
2022/08/30 08:27:34;;;;;;;;;;;;;;;29.82;38.57;102390.19;5113589;28;19927;-34
2022/08/30 08:30:01;;;;;;;;;;;;;;;29.93;38.70;102384.56;5114174;28;20010;-30
2022/08/30 08:32:29;;;;;;;;;;;;;;;30.17;38.89;102395.53;5114008;28;19934;-32
2022/08/30 08:34:58;;;;;;;;;;;;;;;30.46;37.78;102394.53;5113695;28;20315;-30
2022/08/30 08:37:26;;;;;;;;;;;;;;;30.70;37.42;102392.28;5113748;28;19931;-33
2022/08/30 08:39:54;;;;;;;;;;;;;;;30.67;32.78;102390.19;5113366;28;19931;-31
2022/08/30 08:42:24;;;;;;;;;;;;;;;30.65;36.30;102393.47;5114105;28;19942;-29
2022/08/30 08:44:59;;;;;;;;;;;;;;;30.63;34.71;102398.00;5113765;28;19923;-30
2022/08/30 08:47:29;;;;;;;;;;;;;;;30.61;36.19;102394.69;5113275;28;20017;-32
2022/08/30 08:50:01;;;;;;;;;;;;;;;30.77;36.19;102398.13;5114080;28;20419;-31
2022/08/30 08:55:18;;;;;;;;;;;;;;;31.02;35.70;102404.84;5113244;28;19931;-30
2022/08/30 08:57:47;;;;;;;;;;;;;;;31.06;33.19;102404.88;5113616;28;19943;-36
2022/08/30 09:00:14;;;;;;;;;;;;;;;30.96;34.70;102409.34;5113633;28;19924;-31
2022/08/30 09:02:44;;;;;;;;;;;;;;;30.80;34.27;102400.16;5101702;28;19947;-29
2022/08/30 09:05:14;;;;;;;;;;;;;;;30.76;33.60;102405.94;5113677;28;20321;-34
2022/08/30 09:07:43;;;;;;;;;;;;;;;30.61;35.22;102409.91;5113354;28;20027;-31
2022/08/30 09:10:11;;;;;;;;;;;;;;;30.54;35.89;102398.31;5113456;28;19923;-34
2022/08/30 09:12:39;;;;;;;;;;;;;;;30.67;35.48;102401.72;5112471;28;19923;-29
2022/08/30 09:15:09;;;;;;;;;;;;;;;30.81;36.09;102398.94;5112329;28;19928;-39
2022/08/30 09:17:50;;;;;;;;;;;;;;;30.93;32.68;102400.69;5112005;28;20399;-33
2022/08/30 09:20:27;;;;;;;;;;;;;;;31.11;35.40;102405.34;5111283;28;19924;-32
2022/08/30 09:22:55;;;;;;;;;;;;;;;31.32;35.63;102398.03;5111668;28;19932;-31
2022/08/30 09:25:24;;;;;;;;;;;;;;;31.47;34.39;102402.63;5112037;28;19947;-31
2022/08/30 09:27:53;;;;;;;;;;;;;;;31.40;32.51;102396.81;5112633;28;19924;-39
2022/08/30 09:30:22;;;;;;;;;;;;;;;31.34;33.99;102407.13;5112309;28;19928;-35
2022/08/30 09:32:51;;;;;;;;;;;;;;;31.41;34.40;102401.34;5112564;28;19931;-38
2022/08/30 09:35:20;;;;;;;;;;;;;;;31.40;33.18;102411.25;5113245;28;19923;-33
2022/08/30 09:37:52;;;;;;;;;;;;;;;31.42;33.06;102403.00;5111700;28;20385;-33
2022/08/30 09:40:28;;;;;;;;;;;;;;;31.48;33.76;102401.38;5111461;28;19934;-36
2022/08/30 09:43:01;;;;;;;;;;;;;;;31.51;33.52;102410.06;5112252;28;19935;-30
2022/08/30 09:45:31;;;;;;;;;;;;;;;31.65;33.91;102411.34;5110313;28;19924;-30
2022/08/30 09:47:59;;;;;;;;;;;;;;;31.72;32.87;102406.47;5112931;28;19930;-29
2022/08/30 09:50:32;;;;;;;;;;;;;;;31.51;32.97;102406.34;5112156;28;19928;-30
2022/08/30 09:53:08;;;;;;;;;;;;;;;31.58;32.88;102405.53;5106641;28;19931;-35
2022/08/30 09:55:41;;;;;;;;;;;;;;;31.70;33.29;102405.22;5112995;28;19924;-32
2022/08/30 09:58:11;;;;;;;;;;;;;;;31.41;33.16;102402.19;5105723;28;19924;-33
2022/08/30 10:00:41;;;;;;;;;;;;;;;31.47;34.07;102412.09;5112069;28;19924;-31
2022/08/30 10:03:25;;;;;;;;;;;;;;;31.49;34.39;102400.16;5112949;28;19935;-38
2022/08/30 10:06:10;;;;;;;;;;;;;;;31.59;34.66;102405.13;5109292;28;20307;-31
2022/08/30 10:08:45;;;;;;;;;;;;;;;31.72;33.26;102400.69;5112488;28;20035;-34
2022/08/30 10:11:22;;;;;;;;;;;;;;;31.74;33.84;102404.00;5111766;28;19924;-36
2022/08/30 10:14:03;;;;;;;;;;;;;;;31.61;33.18;102388.22;5112876;28;20384;-34
2022/08/30 10:16:45;;;;;;;;;;;;;;;31.76;34.48;102394.94;5110450;28;19931;-34
2022/08/30 10:19:18;;;;;;;;;;;;;;;31.93;33.33;102387.53;5111220;28;19928;-29
2022/08/30 10:21:49;;;;;;;;;;;;;;;31.89;32.89;102393.28;5111479;28;19938;-30
2022/08/30 10:24:21;;;;;;;;;;;;;;;31.65;31.50;102394.84;5111459;28;19923;-29
2022/08/30 10:26:52;;;;;;;;;;;;;;;31.66;33.58;102398.59;5111149;28;19934;-31
2022/08/30 10:29:23;;;;;;;;;;;;;;;31.66;32.27;102392.81;5112119;28;19927;-32
2022/08/30 10:31:54;;;;;;;;;;;;;;;31.63;32.74;102399.38;5112119;28;19924;-41
2022/08/30 10:34:25;;;;;;;;;;;;;;;31.57;33.03;102396.06;5105582;28;19924;-37
2022/08/30 10:36:56;;;;;;;;;;;;;;;31.54;33.10;102394.00;5112356;28;19938;-39
2022/08/30 10:39:26;;;;;;;;;;;;;;;31.38;34.11;102397.22;5111670;28;19931;-31
2022/08/30 10:42:00;;;;;;;;;;;;;;;31.26;32.53;102393.88;5112112;28;19934;-36
2022/08/30 10:44:30;;;;;;;;;;;;;;;31.29;34.01;102393.06;5112099;28;20011;-30
2022/08/30 10:47:02;;;;;;;;;;;;;;;31.52;34.19;102390.69;5111508;28;19934;-34
2022/08/30 10:49:32;;;;;;;;;;;;;;;31.65;31.42;102391.97;5112382;28;19924;-34
2022/08/30 10:52:04;;;;;;;;;;;;;;;31.40;32.24;102386.09;5112161;28;19939;-30
2022/08/30 10:54:36;;;;;;;;;;;;;;;30.77;32.40;102386.59;5111245;28;20289;-38
2022/08/30 10:57:04;;;;;;;;;;;;;;;30.63;33.98;102386.47;5112021;28;19927;-30
2022/08/30 10:59:33;;;;;;;;;;;;;;;30.60;34.11;102382.31;5111855;28;19931;-30
2022/08/30 11:02:18;;;;;;;;;;;;;;;30.65;34.01;102381.97;5111428;28;19927;-37
2022/08/30 11:05:01;;;;;;;;;;;;;;;30.73;33.04;102388.59;5111687;28;19931;-29
2022/08/30 11:07:35;;;;;;;;;;;;;;;30.73;33.67;102392.31;5109429;28;20031;-31
2022/08/30 11:10:10;;;;;;;;;;;;;;;30.64;33.82;102388.94;5111863;28;20364;-30
2022/08/30 11:12:41;;;;;;;;;;;;;;;30.65;34.23;102386.88;5111952;28;19923;-38
2022/08/30 11:15:15;;;;;;;;;;;;;;;30.75;34.50;102386.16;5109198;28;19924;-30
2022/08/30 11:17:46;;;;;;;;;;;;;;;31.00;34.49;102384.22;5110440;28;19924;-31
2022/08/30 11:20:23;;;;;;;;;;;;;;;31.22;34.11;102382.31;5092524;28;19928;-36
2022/08/30 11:23:05;;;;;;;;;;;;;;;30.92;32.56;102382.56;5114382;28;20034;-35
2022/08/30 11:25:50;;;;;;;;;;;;;;;30.98;34.21;102380.09;5115349;28;19928;-36
2022/08/30 11:28:56;;;;;;;;;;;;;;;30.87;34.08;102373.44;5114480;28;20019;-30
2022/08/30 11:31:38;;;;;;;;;;;;;;;30.83;34.65;102380.00;5110478;28;19953;-30
2022/08/30 11:34:08;;;;;;;;;;;;;;;31.00;34.75;102384.22;5113500;28;20257;-33
2022/08/30 11:36:58;;;;;;;;;;;;;;;31.16;34.43;102381.91;5115054;28;19928;-31
2022/08/30 11:39:46;;;;;;;;;;;;;;;31.23;33.98;102391.78;5112150;28;19930;-31
2022/08/30 11:42:26;;;;;;;;;;;;;;;30.99;33.58;102379.69;5091577;28;19923;-34
2022/08/30 11:45:11;;;;;;;;;;;;;;;30.54;34.16;102380.22;5111907;28;19927;-32
2022/08/30 11:47:40;;;;;;;;;;;;;;;30.24;34.99;102389.00;5112299;28;20461;-29
2022/08/30 11:50:12;;;;;;;;;;;;;;;30.07;35.51;102376.09;5109370;28;19931;-28
2022/08/30 11:52:45;;;;;;;;;;;;;;;29.85;35.19;102385.72;5109278;28;20022;-31
2022/08/30 11:55:25;;;;;;;;;;;;;;;29.65;35.51;102385.91;5114465;28;19927;-34
2022/08/30 11:57:58;;;;;;;;;;;;;;;29.60;35.84;102376.78;5113160;28;19935;-29
2022/08/30 12:00:29;;;;;;;;;;;;;;;29.52;36.13;102381.66;5110438;28;20372;-28
2022/08/30 12:03:02;;;;;;;;;;;;;;;29.46;36.33;102371.72;5114087;28;19939;-33
2022/08/30 12:05:48;;;;;;;;;;;;;;;29.46;36.74;102377.47;5111980;28;19928;-29
2022/08/30 12:08:37;;;;;;;;;;;;;;;29.45;36.44;102378.69;5113794;28;19924;-29
2022/08/30 12:11:07;;;;;;;;;;;;;;;29.40;37.29;102370.41;5109696;28;20485;-29
2022/08/30 12:13:54;;;;;;;;;;;;;;;29.24;37.69;102384.13;5110356;28;20022;-29
2022/08/30 12:16:23;;;;;;;;;;;;;;;29.16;38.10;102379.53;5113792;28;19924;-28
2022/08/30 12:18:52;;;;;;;;;;;;;;;29.09;37.43;102369.56;5112741;28;20016;-37
2022/08/30 12:21:26;;;;;;;;;;;;;;;29.02;37.43;102380.13;5113348;28;20381;-28
2022/08/30 12:23:58;;;;;;;;;;;;;;;28.96;37.63;102376.81;5113597;28;19927;-29
2022/08/30 12:26:32;;;;;;;;;;;;;;;28.87;37.09;102381.16;5113133;28;20026;-31
2022/08/30 12:29:12;;;;;;;;;;;;;;;28.79;37.23;102374.44;5111912;28;20284;-32
2022/08/30 12:31:41;;;;;;;;;;;;;;;28.57;36.55;102373.31;5111123;28;20350;-33
2022/08/30 12:34:16;;;;;;;;;;;;;;;28.44;37.27;102372.69;5112471;28;19977;-30
2022/08/30 12:36:49;;;;;;;;;;;;;;;28.40;37.42;102371.78;5110103;28;19927;-29
2022/08/30 12:39:18;;;;;;;;;;;;;;;28.36;37.84;102370.09;5112132;28;19931;-33
2022/08/30 12:41:45;;;;;;;;;;;;;;;28.28;37.94;102374.06;5113681;28;19928;-30
2022/08/30 12:44:18;;;;;;;;;;;;;;;28.11;38.16;102372.50;5113676;28;20057;-33
2022/08/30 12:46:48;;;;;;;;;;;;;;;27.93;38.56;102362.75;5112700;28;19934;-38
2022/08/30 12:49:16;;;;;;;;;;;;;;;27.89;38.42;102365.53;5113342;28;20373;-33
2022/08/30 12:51:44;;;;;;;;;;;;;;;27.79;38.55;102363.28;5113027;28;19934;-33